sensor_id;sensor_type;location;lat;lon;timestamp;pressure;altitude;pressure_sealevel;temperature;humidity
10145;BME280;5113;41.822;23.564;2023-03-19T00:01:42;-10899.88;;;-1.25;100.00
10145;BME280;5113;41.822;23.564;2023-03-19T00:04:50;-10893.44;;;-1.49;100.00
10145;BME280;5113;41.822;23.564;2023-03-19T00:07:56;-10902.53;;;-1.16;100.00
10145;BME280;5113;41.822;23.564;2023-03-19T00:11:06;-10898.47;;;-1.30;100.00
10145;BME280;5113;41.822;23.564;2023-03-19T00:14:14;-10881.97;;;-1.90;100.00
10145;BME280;5113;41.822;23.564;2023-03-19T00:17:21;-10871.59;;;-2.28;100.00
10145;BME280;5113;41.822;23.564;2023-03-19T00:20:27;-10869.94;;;-2.34;100.00
10145;BME280;5113;41.822;23.564;2023-03-19T00:23:34;-10862.22;;;-2.62;100.00
10145;BME280;5113;41.822;23.564;2023-03-19T00:26:41;-10858.19;;;-2.77;100.00
10145;BME280;5113;41.822;23.564;2023-03-19T00:29:49;-10848.94;;;-3.10;100.00
10145;BME280;5113;41.822;23.564;2023-03-19T00:32:56;-10863.22;;;-2.58;100.00
10145;BME280;5113;41.822;23.564;2023-03-19T00:36:03;-10864.59;;;-2.53;100.00
10145;BME280;5113;41.822;23.564;2023-03-19T00:39:10;-10874.13;;;-2.19;100.00
10145;BME280;5113;41.822;23.564;2023-03-19T00:42:16;-10865.31;;;-2.51;100.00
10145;BME280;5113;41.822;23.564;2023-03-19T00:45:24;-10872.03;;;-2.26;100.00
10145;BME280;5113;41.822;23.564;2023-03-19T00:48:30;-10878.88;;;-2.02;100.00
10145;BME280;5113;41.822;23.564;2023-03-19T00:51:37;-10894.00;;;-1.47;100.00
10145;BME280;5113;41.822;23.564;2023-03-19T00:54:47;-10888.41;;;-1.67;100.00
10145;BME280;5113;41.822;23.564;2023-03-19T00:57:54;-10891.75;;;-1.55;100.00
10145;BME280;5113;41.822;23.564;2023-03-19T01:01:02;-10882.66;;;-1.88;100.00
10145;BME280;5113;41.822;23.564;2023-03-19T01:04:09;-10874.41;;;-2.18;100.00
10145;BME280;5113;41.822;23.564;2023-03-19T01:07:16;-10861.53;;;-2.64;100.00
10145;BME280;5113;41.822;23.564;2023-03-19T01:10:23;-10862.94;;;-2.59;100.00
10145;BME280;5113;41.822;23.564;2023-03-19T01:13:30;-10874.53;;;-2.17;100.00
10145;BME280;5113;41.822;23.564;2023-03-19T01:16:38;-10880.84;;;-1.94;100.00
10145;BME280;5113;41.822;23.564;2023-03-19T01:19:44;-10870.34;;;-2.33;100.00
10145;BME280;5113;41.822;23.564;2023-03-19T01:22:51;-10874.97;;;-2.16;100.00
10145;BME280;5113;41.822;23.564;2023-03-19T01:25:58;-10886.44;;;-1.74;100.00
10145;BME280;5113;41.822;23.564;2023-03-19T01:29:04;-10882.25;;;-1.89;100.00
10145;BME280;5113;41.822;23.564;2023-03-19T01:32:12;-10877.75;;;-2.06;100.00
10145;BME280;5113;41.822;23.564;2023-03-19T01:35:19;-10874.53;;;-2.17;100.00
10145;BME280;5113;41.822;23.564;2023-03-19T01:38:26;-10873.97;;;-2.19;100.00
10145;BME280;5113;41.822;23.564;2023-03-19T01:41:32;-10879.31;;;-2.00;100.00
10145;BME280;5113;41.822;23.564;2023-03-19T01:44:39;-10885.59;;;-1.77;100.00
10145;BME280;5113;41.822;23.564;2023-03-19T01:47:47;-10890.63;;;-1.59;100.00
10145;BME280;5113;41.822;23.564;2023-03-19T01:50:53;-10888.41;;;-1.67;100.00
10145;BME280;5113;41.822;23.564;2023-03-19T01:54:05;-10879.44;;;-2.00;100.00
10145;BME280;5113;41.822;23.564;2023-03-19T01:57:14;-10876.78;;;-2.09;100.00
10145;BME280;5113;41.822;23.564;2023-03-19T02:00:21;-10870.34;;;-2.33;100.00
10145;BME280;5113;41.822;23.564;2023-03-19T02:03:29;-10871.31;;;-2.29;100.00
10145;BME280;5113;41.822;23.564;2023-03-19T02:06:37;-10864.19;;;-2.55;100.00
10145;BME280;5113;41.822;23.564;2023-03-19T02:09:45;-10863.22;;;-2.58;100.00
10145;BME280;5113;41.822;23.564;2023-03-19T02:12:52;-10864.19;;;-2.55;100.00
10145;BME280;5113;41.822;23.564;2023-03-19T02:15:58;-10873.16;;;-2.22;100.00
10145;BME280;5113;41.822;23.564;2023-03-19T02:19:08;-10846.72;;;-3.18;100.00
10145;BME280;5113;41.822;23.564;2023-03-19T02:22:22;-10845.88;;;-3.21;100.00
10145;BME280;5113;41.822;23.564;2023-03-19T02:25:37;-10840.84;;;-3.40;100.00
10145;BME280;5113;41.822;23.564;2023-03-19T02:28:48;-10854.53;;;-2.90;100.00
10145;BME280;5113;41.822;23.564;2023-03-19T02:31:55;-10852.72;;;-2.96;100.00
10145;BME280;5113;41.822;23.564;2023-03-19T02:35:01;-10870.50;;;-2.32;100.00
10145;BME280;5113;41.822;23.564;2023-03-19T02:38:08;-10862.22;;;-2.62;100.00
10145;BME280;5113;41.822;23.564;2023-03-19T02:41:16;-10864.06;;;-2.55;100.00
10145;BME280;5113;41.822;23.564;2023-03-19T02:44:24;-10846.44;;;-3.19;100.00
10145;BME280;5113;41.822;23.564;2023-03-19T02:47:31;-10837.63;;;-3.51;100.00
10145;BME280;5113;41.822;23.564;2023-03-19T02:50:37;-10850.47;;;-3.05;100.00
10145;BME280;5113;41.822;23.564;2023-03-19T02:53:43;-10866.28;;;-2.47;100.00
10145;BME280;5113;41.822;23.564;2023-03-19T02:56:50;-10866.84;;;-2.45;100.00
10145;BME280;5113;41.822;23.564;2023-03-19T02:59:58;-10852.59;;;-2.97;100.00
10145;BME280;5113;41.822;23.564;2023-03-19T03:03:05;-10844.31;;;-3.27;100.00
10145;BME280;5113;41.822;23.564;2023-03-19T03:06:12;-10837.06;;;-3.53;100.00
10145;BME280;5113;41.822;23.564;2023-03-19T03:09:18;-10833.69;;;-3.66;100.00
10145;BME280;5113;41.822;23.564;2023-03-19T03:12:25;-10838.88;;;-3.47;100.00
10145;BME280;5113;41.822;23.564;2023-03-19T03:15:33;-10837.06;;;-3.53;100.00
10145;BME280;5113;41.822;23.564;2023-03-19T03:18:39;-10839.28;;;-3.45;100.00
10145;BME280;5113;41.822;23.564;2023-03-19T03:21:45;-10833.41;;;-3.67;100.00
10145;BME280;5113;41.822;23.564;2023-03-19T03:24:52;-10835.81;;;-3.58;100.00
10145;BME280;5113;41.822;23.564;2023-03-19T03:27:58;-10838.31;;;-3.49;100.00
10145;BME280;5113;41.822;23.564;2023-03-19T03:31:06;-10852.88;;;-2.96;100.00
10145;BME280;5113;41.822;23.564;2023-03-19T03:34:12;-10855.22;;;-2.87;100.00
10145;BME280;5113;41.822;23.564;2023-03-19T03:37:19;-10863.06;;;-2.59;100.00
10145;BME280;5113;41.822;23.564;2023-03-19T03:40:25;-10864.06;;;-2.55;100.00
10145;BME280;5113;41.822;23.564;2023-03-19T03:43:31;-10860.13;;;-2.70;100.00
10145;BME280;5113;41.822;23.564;2023-03-19T03:46:39;-10859.84;;;-2.71;100.00
10145;BME280;5113;41.822;23.564;2023-03-19T03:49:47;-10853.13;;;-2.95;100.00
10145;BME280;5113;41.822;23.564;2023-03-19T03:52:53;-10866.56;;;-2.46;100.00
10145;BME280;5113;41.822;23.564;2023-03-19T03:56:00;-10865.44;;;-2.50;100.00
10145;BME280;5113;41.822;23.564;2023-03-19T03:59:07;-10865.03;;;-2.52;100.00
10145;BME280;5113;41.822;23.564;2023-03-19T04:02:15;-10863.78;;;-2.56;100.00
10145;BME280;5113;41.822;23.564;2023-03-19T04:05:22;-10843.06;;;-3.32;100.00
10145;BME280;5113;41.822;23.564;2023-03-19T04:08:28;-10832.31;;;-3.71;100.00
10145;BME280;5113;41.822;23.564;2023-03-19T04:11:35;-10853.41;;;-2.94;100.00
10145;BME280;5113;41.822;23.564;2023-03-19T04:14:42;-10853.13;;;-2.95;100.00
10145;BME280;5113;41.822;23.564;2023-03-19T04:17:50;-10840.28;;;-3.42;100.00
10145;BME280;5113;41.822;23.564;2023-03-19T04:20:56;-10836.34;;;-3.56;100.00
10145;BME280;5113;41.822;23.564;2023-03-19T04:24:03;-10838.59;;;-3.48;100.00
10145;BME280;5113;41.822;23.564;2023-03-19T04:27:09;-10839.44;;;-3.45;100.00
10145;BME280;5113;41.822;23.564;2023-03-19T04:30:16;-10841.09;;;-3.39;100.00
10145;BME280;5113;41.822;23.564;2023-03-19T04:33:24;-10838.47;;;-3.48;100.00
10145;BME280;5113;41.822;23.564;2023-03-19T04:36:30;-10838.59;;;-3.48;100.00
10145;BME280;5113;41.822;23.564;2023-03-19T04:39:37;-10840.84;;;-3.40;100.00
10145;BME280;5113;41.822;23.564;2023-03-19T04:42:43;-10837.75;;;-3.51;100.00
10145;BME280;5113;41.822;23.564;2023-03-19T04:45:50;-10824.47;;;-3.99;100.00
10145;BME280;5113;41.822;23.564;2023-03-19T04:48:58;-10827.41;;;-3.88;100.00
10145;BME280;5113;41.822;23.564;2023-03-19T04:52:05;-10849.22;;;-3.09;100.00
10145;BME280;5113;41.822;23.564;2023-03-19T04:55:11;-10833.00;;;-3.68;100.00
10145;BME280;5113;41.822;23.564;2023-03-19T04:58:17;-10843.91;;;-3.28;100.00
10145;BME280;5113;41.822;23.564;2023-03-19T05:01:24;-10858.44;;;-2.76;100.00
10145;BME280;5113;41.822;23.564;2023-03-19T05:04:32;-10847.97;;;-3.14;100.00
10145;BME280;5113;41.822;23.564;2023-03-19T05:07:40;-10852.88;;;-2.96;100.00
10145;BME280;5113;41.822;23.564;2023-03-19T05:10:47;-10874.13;;;-2.19;100.00
10145;BME280;5113;41.822;23.564;2023-03-19T05:13:53;-10897.91;;;-1.33;100.00
10145;BME280;5113;41.822;23.564;2023-03-19T05:17:00;-10896.94;;;-1.36;100.00
10145;BME280;5113;41.822;23.564;2023-03-19T05:20:10;-10896.78;;;-1.37;100.00
10145;BME280;5113;41.822;23.564;2023-03-19T05:23:16;-10902.41;;;-1.16;100.00
10145;BME280;5113;41.822;23.564;2023-03-19T05:26:23;-10909.69;;;-0.90;100.00
10145;BME280;5113;41.822;23.564;2023-03-19T05:29:29;-10909.13;;;-0.92;100.00
10145;BME280;5113;41.822;23.564;2023-03-19T05:32:36;-10920.31;;;-0.51;100.00
10145;BME280;5113;41.822;23.564;2023-03-19T05:35:45;-10933.47;;;-0.04;100.00
10145;BME280;5113;41.822;23.564;2023-03-19T05:38:52;-10932.38;;;-0.08;100.00
10145;BME280;5113;41.822;23.564;2023-03-19T05:41:58;-10931.38;;;-0.11;100.00
10145;BME280;5113;41.822;23.564;2023-03-19T05:45:05;-10929.84;;;-0.17;100.00
10145;BME280;5113;41.822;23.564;2023-03-19T05:48:12;-10935.56;;;0.04;100.00
10145;BME280;5113;41.822;23.564;2023-03-19T05:51:19;-10939.50;;;0.18;100.00
10145;BME280;5113;41.822;23.564;2023-03-19T05:54:26;-10936.28;;;0.07;100.00
10145;BME280;5113;41.822;23.564;2023-03-19T05:57:32;-10952.66;;;0.66;97.81
10145;BME280;5113;41.822;23.564;2023-03-19T06:00:38;-10956.87;;;0.81;98.29
10145;BME280;5113;41.822;23.564;2023-03-19T06:03:46;-10960.25;;;0.93;97.70
10145;BME280;5113;41.822;23.564;2023-03-19T06:06:53;-10941.03;;;0.24;100.00
10145;BME280;5113;41.822;23.564;2023-03-19T06:10:00;-10966.69;;;1.17;96.76
10145;BME280;5113;41.822;23.564;2023-03-19T06:13:06;-10984.19;;;1.80;94.04
10145;BME280;5113;41.822;23.564;2023-03-19T06:16:13;-10980.00;;;1.65;95.38
10145;BME280;5113;41.822;23.564;2023-03-19T06:19:20;-10989.25;;;1.98;92.83
10145;BME280;5113;41.822;23.564;2023-03-19T06:22:27;-10997.53;;;2.28;91.24
10145;BME280;5113;41.822;23.564;2023-03-19T06:25:34;-10992.06;;;2.09;90.31
10145;BME280;5113;41.822;23.564;2023-03-19T06:28:40;-10993.72;;;2.15;86.08
10145;BME280;5113;41.822;23.564;2023-03-19T06:31:46;-11003.97;;;2.52;84.06
10145;BME280;5113;41.822;23.564;2023-03-19T06:34:52;-11013.94;;;2.88;80.38
10145;BME280;5113;41.822;23.564;2023-03-19T06:38:02;-11018.13;;;3.03;78.35
10145;BME280;5113;41.822;23.564;2023-03-19T06:41:08;-11029.34;;;3.44;78.64
10145;BME280;5113;41.822;23.564;2023-03-19T06:44:15;-11041.00;;;3.86;76.97
10145;BME280;5113;41.822;23.564;2023-03-19T06:47:21;-11040.84;;;3.85;77.03
10145;BME280;5113;41.822;23.564;2023-03-19T06:50:27;-11039.44;;;3.80;74.10
10145;BME280;5113;41.822;23.564;2023-03-19T06:53:35;-11055.44;;;4.38;73.32
10145;BME280;5113;41.822;23.564;2023-03-19T06:56:42;-11045.06;;;4.01;72.83
10145;BME280;5113;41.822;23.564;2023-03-19T06:59:48;-11044.22;;;3.97;73.22
10145;BME280;5113;41.822;23.564;2023-03-19T07:02:55;-11065.56;;;4.75;70.47
10145;BME280;5113;41.822;23.564;2023-03-19T07:06:01;-11069.91;;;4.90;68.64
10145;BME280;5113;41.822;23.564;2023-03-19T07:09:09;-11057.13;;;4.44;68.71
10145;BME280;5113;41.822;23.564;2023-03-19T07:12:16;-11061.63;;;4.60;64.87
10145;BME280;5113;41.822;23.564;2023-03-19T07:15:22;-11079.59;;;5.25;64.95
10145;BME280;5113;41.822;23.564;2023-03-19T07:18:29;-11078.31;;;5.21;62.74
10145;BME280;5113;41.822;23.564;2023-03-19T07:21:35;-11064.16;;;4.70;62.97
10145;BME280;5113;41.822;23.564;2023-03-19T07:24:43;-11082.81;;;5.37;64.52
10145;BME280;5113;41.822;23.564;2023-03-19T07:27:49;-11088.56;;;5.58;62.12
10145;BME280;5113;41.822;23.564;2023-03-19T07:30:59;-11086.75;;;5.51;62.00
10145;BME280;5113;41.822;23.564;2023-03-19T07:34:06;-11094.19;;;5.78;62.04
10145;BME280;5113;41.822;23.564;2023-03-19T07:37:12;-11092.38;;;5.72;62.43
10145;BME280;5113;41.822;23.564;2023-03-19T07:40:19;-11093.63;;;5.76;62.01
10145;BME280;5113;41.822;23.564;2023-03-19T07:43:26;-11108.78;;;6.31;60.50
10145;BME280;5113;41.822;23.564;2023-03-19T07:46:32;-11103.19;;;6.11;60.99
10145;BME280;5113;41.822;23.564;2023-03-19T07:49:38;-11105.84;;;6.20;63.13
10145;BME280;5113;41.822;23.564;2023-03-19T07:52:45;-11116.94;;;6.60;61.16
10145;BME280;5113;41.822;23.564;2023-03-19T07:55:53;-11111.31;;;6.40;61.09
10145;BME280;5113;41.822;23.564;2023-03-19T07:58:59;-11131.13;;;7.12;56.38
10145;BME280;5113;41.822;23.564;2023-03-19T08:02:07;-11125.66;;;6.92;56.58
10145;BME280;5113;41.822;23.564;2023-03-19T08:05:15;-11120.44;;;6.73;57.07
10145;BME280;5113;41.822;23.564;2023-03-19T08:08:21;-11135.19;;;7.26;57.67
10145;BME280;5113;41.822;23.564;2023-03-19T08:11:29;-11139.56;;;7.42;57.71
10145;BME280;5113;41.822;23.564;2023-03-19T08:14:36;-11141.94;;;7.51;54.48
10145;BME280;5113;41.822;23.564;2023-03-19T08:17:42;-11131.25;;;7.12;55.57
10145;BME280;5113;41.822;23.564;2023-03-19T08:20:49;-11150.66;;;7.82;54.57
10145;BME280;5113;41.822;23.564;2023-03-19T08:23:56;-11161.34;;;8.21;54.29
10145;BME280;5113;41.822;23.564;2023-03-19T08:27:04;-11175.94;;;8.74;53.16
10145;BME280;5113;41.822;23.564;2023-03-19T08:30:12;-11174.41;;;8.68;53.67
10145;BME280;5113;41.822;23.564;2023-03-19T08:33:18;-11169.50;;;8.50;53.46
10145;BME280;5113;41.822;23.564;2023-03-19T08:36:25;-11162.75;;;8.26;52.67
10145;BME280;5113;41.822;23.564;2023-03-19T08:39:32;-11188.03;;;9.17;51.21
10145;BME280;5113;41.822;23.564;2023-03-19T08:42:40;-11182.41;;;8.97;50.92
10145;BME280;5113;41.822;23.564;2023-03-19T08:45:49;-11192.13;;;9.32;51.59
10145;BME280;5113;41.822;23.564;2023-03-19T08:48:55;-11199.56;;;9.59;50.49
10145;BME280;5113;41.822;23.564;2023-03-19T08:52:02;-11210.25;;;9.98;51.29
10145;BME280;5113;41.822;23.564;2023-03-19T08:55:08;-11212.22;;;10.05;51.00
10145;BME280;5113;41.822;23.564;2023-03-19T08:58:16;-11198.16;;;9.54;50.46
10145;BME280;5113;41.822;23.564;2023-03-19T09:01:23;-11217.44;;;10.23;50.95
10145;BME280;5113;41.822;23.564;2023-03-19T09:04:29;-11215.59;;;10.17;50.64
10145;BME280;5113;41.822;23.564;2023-03-19T09:07:40;-11219.53;;;10.31;49.78
10145;BME280;5113;41.822;23.564;2023-03-19T09:10:46;-11224.03;;;10.47;49.85
10145;BME280;5113;41.822;23.564;2023-03-19T09:13:56;-11239.94;;;11.05;48.17
10145;BME280;5113;41.822;23.564;2023-03-19T09:17:03;-11250.78;;;11.44;48.83
10145;BME280;5113;41.822;23.564;2023-03-19T09:20:10;-11241.19;;;11.09;48.29
10145;BME280;5113;41.822;23.564;2023-03-19T09:23:16;-11262.72;;;11.87;47.60
10145;BME280;5113;41.822;23.564;2023-03-19T09:26:23;-11268.50;;;12.08;46.61
10145;BME280;5113;41.822;23.564;2023-03-19T09:29:30;-11253.31;;;11.53;46.30
10145;BME280;5113;41.822;23.564;2023-03-19T09:32:37;-11263.44;;;11.89;48.58
10145;BME280;5113;41.822;23.564;2023-03-19T09:35:48;-11256.97;;;11.66;47.58
10145;BME280;5113;41.822;23.564;2023-03-19T09:38:55;-11262.16;;;11.85;48.46
10145;BME280;5113;41.822;23.564;2023-03-19T09:42:13;-11262.72;;;11.87;47.26
10145;BME280;5113;41.822;23.564;2023-03-19T09:45:23;-11287.91;;;12.78;46.44
10145;BME280;5113;41.822;23.564;2023-03-19T09:48:34;-11304.97;;;13.39;45.99
10145;BME280;5113;41.822;23.564;2023-03-19T09:51:47;-11291.16;;;12.89;45.94
10145;BME280;5113;41.822;23.564;2023-03-19T09:54:56;-11293.00;;;12.96;44.94
10145;BME280;5113;41.822;23.564;2023-03-19T09:58:11;-11307.91;;;13.50;44.88
10145;BME280;5113;41.822;23.564;2023-03-19T10:01:29;-11304.69;;;13.38;44.29
10145;BME280;5113;41.822;23.564;2023-03-19T10:04:55;-11302.72;;;13.31;43.63
10145;BME280;5113;41.822;23.564;2023-03-19T10:08:15;-11336.78;;;14.54;43.06
10145;BME280;5113;41.822;23.564;2023-03-19T10:11:34;-11325.66;;;14.14;43.53
10145;BME280;5113;41.822;23.564;2023-03-19T10:14:53;-11316.09;;;13.79;41.78
10145;BME280;5113;41.822;23.564;2023-03-19T10:18:09;-11323.41;;;14.06;41.30
10145;BME280;5113;41.822;23.564;2023-03-19T10:21:21;-11337.34;;;14.56;42.72
10145;BME280;5113;41.822;23.564;2023-03-19T10:24:31;-11336.66;;;14.53;42.08
10145;BME280;5113;41.822;23.564;2023-03-19T10:27:42;-11340.72;;;14.68;42.07
10145;BME280;5113;41.822;23.564;2023-03-19T10:30:54;-11339.19;;;14.63;42.20
10145;BME280;5113;41.822;23.564;2023-03-19T10:34:16;-11351.56;;;15.07;41.16
10145;BME280;5113;41.822;23.564;2023-03-19T10:37:27;-11361.56;;;15.43;39.98
10145;BME280;5113;41.822;23.564;2023-03-19T10:40:43;-11348.19;;;14.95;40.77
10145;BME280;5113;41.822;23.564;2023-03-19T10:43:55;-11340.03;;;14.66;41.91
10145;BME280;5113;41.822;23.564;2023-03-19T10:47:11;-11331.56;;;14.35;40.98
10145;BME280;5113;41.822;23.564;2023-03-19T10:50:21;-11359.47;;;15.36;39.72
10145;BME280;5113;41.822;23.564;2023-03-19T10:53:31;-11346.66;;;14.90;39.30
10145;BME280;5113;41.822;23.564;2023-03-19T10:56:45;-11371.84;;;15.80;39.74
10145;BME280;5113;41.822;23.564;2023-03-19T10:59:51;-11380.75;;;16.12;38.67
10145;BME280;5113;41.822;23.564;2023-03-19T11:02:58;-11380.19;;;16.10;39.71
10145;BME280;5113;41.822;23.564;2023-03-19T11:06:23;-11379.63;;;16.08;39.34
10145;BME280;5113;41.822;23.564;2023-03-19T11:09:32;-11371.56;;;15.79;38.18
10145;BME280;5113;41.822;23.564;2023-03-19T11:12:40;-11369.47;;;15.72;37.43
10145;BME280;5113;41.822;23.564;2023-03-19T11:15:46;-11394.97;;;16.64;37.24
10145;BME280;5113;41.822;23.564;2023-03-19T11:18:53;-11390.19;;;16.46;36.87
10145;BME280;5113;41.822;23.564;2023-03-19T11:22:08;-11370.44;;;15.75;37.51
10145;BME280;5113;41.822;23.564;2023-03-19T11:25:16;-11390.47;;;16.47;37.50
10145;BME280;5113;41.822;23.564;2023-03-19T11:28:24;-11359.19;;;15.35;36.34
10145;BME280;5113;41.822;23.564;2023-03-19T11:31:41;-11382.72;;;16.19;36.02
10145;BME280;5113;41.822;23.564;2023-03-19T11:34:53;-11370.88;;;15.77;36.40
10145;BME280;5113;41.822;23.564;2023-03-19T11:38:13;-11379.75;;;16.09;36.02
10145;BME280;5113;41.822;23.564;2023-03-19T11:41:29;-11381.44;;;16.15;36.30
10145;BME280;5113;41.822;23.564;2023-03-19T11:44:44;-11398.06;;;16.75;36.33
10145;BME280;5113;41.822;23.564;2023-03-19T11:48:08;-11386.09;;;16.32;36.19
10145;BME280;5113;41.822;23.564;2023-03-19T11:51:26;-11422.31;;;17.62;36.36
10145;BME280;5113;41.822;23.564;2023-03-19T11:54:43;-11408.78;;;17.13;36.80
10145;BME280;5113;41.822;23.564;2023-03-19T12:01:34;-11414.97;;;17.36;36.78
10145;BME280;5113;41.822;23.564;2023-03-19T12:05:10;-11403.16;;;16.93;36.89
10145;BME280;5113;41.822;23.564;2023-03-19T12:08:29;-11395.25;;;16.65;36.50
10145;BME280;5113;41.822;23.564;2023-03-19T12:11:45;-11413.16;;;17.29;35.49
10145;BME280;5113;41.822;23.564;2023-03-19T12:15:06;-11427.38;;;17.80;35.40
10145;BME280;5113;41.822;23.564;2023-03-19T12:18:23;-11404.84;;;16.99;35.50
10145;BME280;5113;41.822;23.564;2023-03-19T12:21:42;-11402.88;;;16.92;35.81
10145;BME280;5113;41.822;23.564;2023-03-19T12:25:06;-11418.66;;;17.49;34.61
10145;BME280;5113;41.822;23.564;2023-03-19T12:28:22;-11399.47;;;16.80;35.30
10145;BME280;5113;41.822;23.564;2023-03-19T12:31:41;-11425.56;;;17.74;34.85
10145;BME280;5113;41.822;23.564;2023-03-19T12:34:56;-11429.38;;;17.88;33.78
10145;BME280;5113;41.822;23.564;2023-03-19T12:38:11;-11434.44;;;18.06;33.84
10145;BME280;5113;41.822;23.564;2023-03-19T12:41:21;-11418.38;;;17.48;33.99
10145;BME280;5113;41.822;23.564;2023-03-19T12:44:31;-11422.44;;;17.63;34.28
10145;BME280;5113;41.822;23.564;2023-03-19T12:47:42;-11425.13;;;17.72;33.44
10145;BME280;5113;41.822;23.564;2023-03-19T12:50:53;-11427.38;;;17.80;33.74
10145;BME280;5113;41.822;23.564;2023-03-19T12:54:05;-11441.63;;;18.32;33.36
10145;BME280;5113;41.822;23.564;2023-03-19T12:57:17;-11464.59;;;19.14;32.28
10145;BME280;5113;41.822;23.564;2023-03-19T13:00:31;-11431.91;;;17.97;34.31
10145;BME280;5113;41.822;23.564;2023-03-19T13:03:45;-11429.78;;;17.89;34.14
10145;BME280;5113;41.822;23.564;2023-03-19T13:07:00;-11433.03;;;18.01;34.57
10145;BME280;5113;41.822;23.564;2023-03-19T13:10:11;-11433.59;;;18.03;33.74
10145;BME280;5113;41.822;23.564;2023-03-19T13:13:33;-11427.25;;;17.80;33.42
10145;BME280;5113;41.822;23.564;2023-03-19T13:16:48;-11428.81;;;17.86;33.46
10145;BME280;5113;41.822;23.564;2023-03-19T13:19:57;-11424.28;;;17.69;33.98
10145;BME280;5113;41.822;23.564;2023-03-19T13:23:09;-11417.09;;;17.43;33.51
10145;BME280;5113;41.822;23.564;2023-03-19T13:26:17;-11440.34;;;18.27;33.04
10145;BME280;5113;41.822;23.564;2023-03-19T13:29:25;-11414.97;;;17.36;33.80
10145;BME280;5113;41.822;23.564;2023-03-19T13:32:40;-11448.53;;;18.57;32.53
10145;BME280;5113;41.822;23.564;2023-03-19T13:35:48;-11442.34;;;18.34;32.57
10145;BME280;5113;41.822;23.564;2023-03-19T13:38:56;-11441.19;;;18.30;32.52
10145;BME280;5113;41.822;23.564;2023-03-19T13:42:22;-11433.16;;;18.01;32.56
10145;BME280;5113;41.822;23.564;2023-03-19T13:45:34;-11409.63;;;17.16;33.69
10145;BME280;5113;41.822;23.564;2023-03-19T13:48:50;-11445.72;;;18.46;32.54
10145;BME280;5113;41.822;23.564;2023-03-19T13:51:59;-11462.91;;;19.08;31.82
10145;BME280;5113;41.822;23.564;2023-03-19T13:55:30;-11439.78;;;18.25;32.43
10145;BME280;5113;41.822;23.564;2023-03-19T13:58:47;-11426.81;;;17.78;32.74
10145;BME280;5113;41.822;23.564;2023-03-19T14:01:56;-11448.81;;;18.58;32.11
10145;BME280;5113;41.822;23.564;2023-03-19T14:05:07;-11434.16;;;18.05;32.62
10145;BME280;5113;41.822;23.564;2023-03-19T14:08:24;-11435.56;;;18.10;32.73
10145;BME280;5113;41.822;23.564;2023-03-19T14:11:33;-11427.38;;;17.80;33.04
10145;BME280;5113;41.822;23.564;2023-03-19T14:14:43;-11440.06;;;18.26;32.84
10145;BME280;5113;41.822;23.564;2023-03-19T14:17:58;-11429.66;;;17.89;32.51
10145;BME280;5113;41.822;23.564;2023-03-19T14:21:12;-11425.84;;;17.75;32.85
10145;BME280;5113;41.822;23.564;2023-03-19T14:24:29;-11433.44;;;18.02;33.22
10145;BME280;5113;41.822;23.564;2023-03-19T14:27:59;-11427.94;;;17.83;32.91
10145;BME280;5113;41.822;23.564;2023-03-19T14:31:18;-11426.25;;;17.76;33.07
10145;BME280;5113;41.822;23.564;2023-03-19T14:34:26;-11420.63;;;17.56;33.70
10145;BME280;5113;41.822;23.564;2023-03-19T14:37:43;-11416.38;;;17.41;32.78
10145;BME280;5113;41.822;23.564;2023-03-19T14:40:51;-11417.50;;;17.45;33.63
10145;BME280;5113;41.822;23.564;2023-03-19T14:44:13;-11394.53;;;16.62;34.62
10145;BME280;5113;41.822;23.564;2023-03-19T14:47:46;-11389.75;;;16.45;34.74
10145;BME280;5113;41.822;23.564;2023-03-19T14:54:54;-11392.44;;;16.55;34.52
10145;BME280;5113;41.822;23.564;2023-03-19T14:58:04;-11386.50;;;16.33;34.67
10145;BME280;5113;41.822;23.564;2023-03-19T15:01:12;-11377.63;;;16.01;35.35
10145;BME280;5113;41.822;23.564;2023-03-19T15:04:21;-11375.53;;;15.94;35.33
10145;BME280;5113;41.822;23.564;2023-03-19T15:07:32;-11369.31;;;15.71;35.80
10145;BME280;5113;41.822;23.564;2023-03-19T15:10:49;-11365.94;;;15.59;36.06
10145;BME280;5113;41.822;23.564;2023-03-19T15:14:11;-11367.91;;;15.66;37.84
10145;BME280;5113;41.822;23.564;2023-03-19T15:17:23;-11357.50;;;15.29;38.08
10145;BME280;5113;41.822;23.564;2023-03-19T15:20:35;-11344.53;;;14.82;37.89
10145;BME280;5113;41.822;23.564;2023-03-19T15:23:44;-11345.25;;;14.84;38.14
10145;BME280;5113;41.822;23.564;2023-03-19T15:26:53;-11338.47;;;14.60;39.10
10145;BME280;5113;41.822;23.564;2023-03-19T15:29:59;-11344.81;;;14.83;38.20
10145;BME280;5113;41.822;23.564;2023-03-19T15:33:21;-11342.28;;;14.74;38.22
10145;BME280;5113;41.822;23.564;2023-03-19T15:36:44;-11337.50;;;14.57;39.02
10145;BME280;5113;41.822;23.564;2023-03-19T15:39:53;-11329.47;;;14.28;38.83
10145;BME280;5113;41.822;23.564;2023-03-19T15:43:02;-11327.50;;;14.20;39.27
10145;BME280;5113;41.822;23.564;2023-03-19T15:46:11;-11320.44;;;13.95;39.97
10145;BME280;5113;41.822;23.564;2023-03-19T15:49:21;-11317.22;;;13.83;39.89
10145;BME280;5113;41.822;23.564;2023-03-19T15:52:31;-11316.38;;;13.80;39.88
10145;BME280;5113;41.822;23.564;2023-03-19T15:55:38;-11311.00;;;13.61;40.32
10145;BME280;5113;41.822;23.564;2023-03-19T15:58:48;-11317.22;;;13.83;40.13
10145;BME280;5113;41.822;23.564;2023-03-19T16:01:58;-11310.44;;;13.59;40.43
10145;BME280;5113;41.822;23.564;2023-03-19T16:05:06;-11310.44;;;13.59;40.58
10145;BME280;5113;41.822;23.564;2023-03-19T16:08:28;-11309.31;;;13.55;40.62
10145;BME280;5113;41.822;23.564;2023-03-19T16:11:37;-11304.97;;;13.39;40.48
10145;BME280;5113;41.822;23.564;2023-03-19T16:14:45;-11303.00;;;13.32;41.29
10145;BME280;5113;41.822;23.564;2023-03-19T16:17:51;-11297.78;;;13.13;42.89
10145;BME280;5113;41.822;23.564;2023-03-19T16:21:06;-11293.84;;;12.99;43.84
10145;BME280;5113;41.822;23.564;2023-03-19T16:24:20;-11286.50;;;12.73;43.88
10145;BME280;5113;41.822;23.564;2023-03-19T16:27:34;-11284.56;;;12.66;44.50
10145;BME280;5113;41.822;23.564;2023-03-19T16:30:46;-11274.41;;;12.29;47.55
10145;BME280;5113;41.822;23.564;2023-03-19T16:33:54;-11262.59;;;11.86;49.62
10145;BME280;5113;41.822;23.564;2023-03-19T16:37:01;-11264.16;;;11.92;49.31